sensor_id;sensor_type;location;lat;lon;timestamp;pressure;altitude;pressure_sealevel;temperature
49785;BMP280;35679;38.732;-121.358;2022-11-02T00:02:04;100574.41;;;19.75
49785;BMP280;35679;38.732;-121.358;2022-11-02T00:04:54;100572.53;;;19.75
49785;BMP280;35679;38.732;-121.358;2022-11-02T00:07:43;100568.22;;;19.74
49785;BMP280;35679;38.732;-121.358;2022-11-02T00:10:33;100570.66;;;19.76
49785;BMP280;35679;38.732;-121.358;2022-11-02T00:13:22;100569.03;;;19.75
49785;BMP280;35679;38.732;-121.358;2022-11-02T00:16:14;100583.22;;;19.75
49785;BMP280;35679;38.732;-121.358;2022-11-02T00:19:05;100588.81;;;19.74
49785;BMP280;35679;38.732;-121.358;2022-11-02T00:21:56;100603.63;;;19.76
49785;BMP280;35679;38.732;-121.358;2022-11-02T00:24:47;100604.66;;;19.75
49785;BMP280;35679;38.732;-121.358;2022-11-02T00:27:36;100615.13;;;19.77
49785;BMP280;35679;38.732;-121.358;2022-11-02T00:30:26;100624.00;;;19.77
49785;BMP280;35679;38.732;-121.358;2022-11-02T00:33:16;100625.84;;;19.77
49785;BMP280;35679;38.732;-121.358;2022-11-02T00:36:05;100630.16;;;19.78
49785;BMP280;35679;38.732;-121.358;2022-11-02T00:38:55;100627.25;;;19.79
49785;BMP280;35679;38.732;-121.358;2022-11-02T00:41:48;100628.28;;;19.78
49785;BMP280;35679;38.732;-121.358;2022-11-02T00:44:38;100627.47;;;19.78
49785;BMP280;35679;38.732;-121.358;2022-11-02T00:47:28;100627.47;;;19.78
49785;BMP280;35679;38.732;-121.358;2022-11-02T00:50:17;100628.28;;;19.78
49785;BMP280;35679;38.732;-121.358;2022-11-02T00:53:07;100635.50;;;19.78
49785;BMP280;35679;38.732;-121.358;2022-11-02T00:56:01;100635.75;;;19.76
49785;BMP280;35679;38.732;-121.358;2022-11-02T00:58:51;100642.72;;;19.77
49785;BMP280;35679;38.732;-121.358;2022-11-02T01:01:41;100646.44;;;19.76
49785;BMP280;35679;38.732;-121.358;2022-11-02T01:04:36;100650.16;;;19.75
49785;BMP280;35679;38.732;-121.358;2022-11-02T01:07:29;100660.88;;;19.75
49785;BMP280;35679;38.732;-121.358;2022-11-02T01:10:18;100673.22;;;19.76
49785;BMP280;35679;38.732;-121.358;2022-11-02T01:13:08;100674.25;;;19.75
49785;BMP280;35679;38.732;-121.358;2022-11-02T01:16:02;100673.66;;;19.73
49785;BMP280;35679;38.732;-121.358;2022-11-02T01:18:54;100675.28;;;19.74
49785;BMP280;35679;38.732;-121.358;2022-11-02T01:21:44;100685.44;;;19.73
49785;BMP280;35679;38.732;-121.358;2022-11-02T01:24:38;100694.28;;;19.73
49785;BMP280;35679;38.732;-121.358;2022-11-02T01:27:29;100697.19;;;19.72
49785;BMP280;35679;38.732;-121.358;2022-11-02T01:30:18;100703.34;;;19.72
49785;BMP280;35679;38.732;-121.358;2022-11-02T01:33:08;100710.56;;;19.72
49785;BMP280;35679;38.732;-121.358;2022-11-02T01:36:00;100705.44;;;19.70
49785;BMP280;35679;38.732;-121.358;2022-11-02T01:38:50;100712.63;;;19.70
49785;BMP280;35679;38.732;-121.358;2022-11-02T01:41:41;100719.88;;;19.69
49785;BMP280;35679;38.732;-121.358;2022-11-02T01:44:32;100719.88;;;19.69
49785;BMP280;35679;38.732;-121.358;2022-11-02T01:47:30;100724.38;;;19.69
49785;BMP280;35679;38.732;-121.358;2022-11-02T01:50:24;100730.81;;;19.68
49785;BMP280;35679;38.732;-121.358;2022-11-02T01:53:14;100739.88;;;19.67
49785;BMP280;35679;38.732;-121.358;2022-11-02T01:56:04;100747.06;;;19.66
49785;BMP280;35679;38.732;-121.358;2022-11-02T01:59:02;100749.75;;;19.66
49785;BMP280;35679;38.732;-121.358;2022-11-02T02:01:53;100756.97;;;19.66
49785;BMP280;35679;38.732;-121.358;2022-11-02T02:04:44;100770.34;;;19.66
49785;BMP280;35679;38.732;-121.358;2022-11-02T02:07:38;100774.06;;;19.65
49785;BMP280;35679;38.732;-121.358;2022-11-02T02:10:28;100772.66;;;19.62
49785;BMP280;35679;38.732;-121.358;2022-11-02T02:13:18;100764.63;;;19.62
49785;BMP280;35679;38.732;-121.358;2022-11-02T02:16:22;100791.16;;;19.64
49785;BMP280;35679;38.732;-121.358;2022-11-02T02:19:28;100789.53;;;19.63
49785;BMP280;35679;38.732;-121.358;2022-11-02T02:31:42;100816.75;;;19.60
49785;BMP280;35679;38.732;-121.358;2022-11-02T02:34:40;100815.09;;;19.59
49785;BMP280;35679;38.732;-121.358;2022-11-02T02:37:41;100823.97;;;19.59
49785;BMP280;35679;38.732;-121.358;2022-11-02T02:40:44;100825.00;;;19.58
49785;BMP280;35679;38.732;-121.358;2022-11-02T02:43:48;100837.56;;;19.58
49785;BMP280;35679;38.732;-121.358;2022-11-02T02:46:50;100832.19;;;19.58
49785;BMP280;35679;38.732;-121.358;2022-11-02T02:50:02;100827.31;;;19.55
49785;BMP280;35679;38.732;-121.358;2022-11-02T02:52:53;100833.25;;;19.57
49785;BMP280;35679;38.732;-121.358;2022-11-02T02:55:46;100829.97;;;19.55
49785;BMP280;35679;38.732;-121.358;2022-11-02T02:58:48;100835.56;;;19.53
49785;BMP280;35679;38.732;-121.358;2022-11-02T03:01:43;100846.03;;;19.55
49785;BMP280;35679;38.732;-121.358;2022-11-02T03:04:33;100843.34;;;19.55
49785;BMP280;35679;38.732;-121.358;2022-11-02T03:07:26;100857.19;;;19.52
49785;BMP280;35679;38.732;-121.358;2022-11-02T03:14:00;100862.56;;;19.52
49785;BMP280;35679;38.732;-121.358;2022-11-02T03:17:17;100866.50;;;19.49
49785;BMP280;35679;38.732;-121.358;2022-11-02T03:20:21;100874.50;;;19.49
49785;BMP280;35679;38.732;-121.358;2022-11-02T03:26:18;100883.56;;;19.48
49785;BMP280;35679;38.732;-121.358;2022-11-02T03:29:15;100884.63;;;19.47
49785;BMP280;35679;38.732;-121.358;2022-11-02T03:33:01;100883.81;;;19.47
49785;BMP280;35679;38.732;-121.358;2022-11-02T03:35:35;100896.56;;;19.45
49785;BMP280;35679;38.732;-121.358;2022-11-02T03:38:31;100888.78;;;19.43
49785;BMP280;35679;38.732;-121.358;2022-11-02T03:41:23;100895.16;;;19.42
49785;BMP280;35679;38.732;-121.358;2022-11-02T03:44:18;100899.69;;;19.42
49785;BMP280;35679;38.732;-121.358;2022-11-02T03:47:11;100904.22;;;19.41
49785;BMP280;35679;38.732;-121.358;2022-11-02T03:50:05;100912.47;;;19.40
49785;BMP280;35679;38.732;-121.358;2022-11-02T03:52:56;100916.78;;;19.41
49785;BMP280;35679;38.732;-121.358;2022-11-02T03:56:03;100917.81;;;19.40
49785;BMP280;35679;38.732;-121.358;2022-11-02T03:58:55;100917.22;;;19.38
49785;BMP280;35679;38.732;-121.358;2022-11-02T04:01:48;100928.94;;;19.37
49785;BMP280;35679;38.732;-121.358;2022-11-02T04:04:50;100926.06;;;19.38
49785;BMP280;35679;38.732;-121.358;2022-11-02T04:07:47;100941.53;;;19.36
49785;BMP280;35679;38.732;-121.358;2022-11-02T04:10:57;100938.22;;;19.34
49785;BMP280;35679;38.732;-121.358;2022-11-02T04:14:07;100950.00;;;19.33
49785;BMP280;35679;38.732;-121.358;2022-11-02T04:17:16;100950.00;;;19.33
49785;BMP280;35679;38.732;-121.358;2022-11-02T04:20:30;100955.34;;;19.33
49785;BMP280;35679;38.732;-121.358;2022-11-02T04:23:19;100959.28;;;19.31
49785;BMP280;35679;38.732;-121.358;2022-11-02T04:26:27;100967.31;;;19.31
49785;BMP280;35679;38.732;-121.358;2022-11-02T04:29:17;100967.72;;;19.28
49785;BMP280;35679;38.732;-121.358;2022-11-02T04:32:07;100973.06;;;19.28
49785;BMP280;35679;38.732;-121.358;2022-11-02T04:34:56;100976.78;;;19.27
49785;BMP280;35679;38.732;-121.358;2022-11-02T04:37:46;100990.38;;;19.25
49785;BMP280;35679;38.732;-121.358;2022-11-02T04:40:59;100996.75;;;19.24
49785;BMP280;35679;38.732;-121.358;2022-11-02T04:44:11;101003.97;;;19.24
49785;BMP280;35679;38.732;-121.358;2022-11-02T04:47:14;101020.03;;;19.24
49785;BMP280;35679;38.732;-121.358;2022-11-02T04:50:04;101021.06;;;19.23
49785;BMP280;35679;38.732;-121.358;2022-11-02T04:52:58;101034.44;;;19.23
49785;BMP280;35679;38.732;-121.358;2022-11-02T04:55:49;101040.22;;;19.20
49785;BMP280;35679;38.732;-121.358;2022-11-02T04:58:39;101042.91;;;19.20
49785;BMP280;35679;38.732;-121.358;2022-11-02T05:01:29;101043.94;;;19.19
49785;BMP280;35679;38.732;-121.358;2022-11-02T05:04:20;101044.97;;;19.18
49785;BMP280;35679;38.732;-121.358;2022-11-02T05:07:10;101062.88;;;19.17
49785;BMP280;35679;38.732;-121.358;2022-11-02T05:10:00;101055.03;;;19.16
49785;BMP280;35679;38.732;-121.358;2022-11-02T05:13:00;101062.47;;;19.14
49785;BMP280;35679;38.732;-121.358;2022-11-02T05:15:57;101071.53;;;19.13
49785;BMP280;35679;38.732;-121.358;2022-11-02T05:18:48;101069.88;;;19.12
49785;BMP280;35679;38.732;-121.358;2022-11-02T05:21:39;101077.09;;;19.11
49785;BMP280;35679;38.732;-121.358;2022-11-02T05:24:29;101075.69;;;19.09
49785;BMP280;35679;38.732;-121.358;2022-11-02T05:27:18;101087.19;;;19.09
49785;BMP280;35679;38.732;-121.358;2022-11-02T05:30:08;101090.06;;;19.08
49785;BMP280;35679;38.732;-121.358;2022-11-02T05:32:58;101092.09;;;19.06
49785;BMP280;35679;38.732;-121.358;2022-11-02T05:35:48;101090.25;;;19.07
49785;BMP280;35679;38.732;-121.358;2022-11-02T05:38:37;101097.44;;;19.06
49785;BMP280;35679;38.732;-121.358;2022-11-02T05:41:27;101092.53;;;19.03
49785;BMP280;35679;38.732;-121.358;2022-11-02T05:44:18;101107.78;;;19.03
49785;BMP280;35679;38.732;-121.358;2022-11-02T05:47:08;101113.94;;;19.03
49785;BMP280;35679;38.732;-121.358;2022-11-02T05:49:57;101117.63;;;19.02
49785;BMP280;35679;38.732;-121.358;2022-11-02T05:52:47;101120.75;;;18.99
49785;BMP280;35679;38.732;-121.358;2022-11-02T05:55:36;101121.78;;;18.98
49785;BMP280;35679;38.732;-121.358;2022-11-02T05:58:27;101123.41;;;18.99
49785;BMP280;35679;38.732;-121.358;2022-11-02T06:01:16;101120.75;;;18.99
49785;BMP280;35679;38.732;-121.358;2022-11-02T06:04:06;101119.09;;;18.98
49785;BMP280;35679;38.732;-121.358;2022-11-02T06:06:56;101127.34;;;18.97
49785;BMP280;35679;38.732;-121.358;2022-11-02T06:09:45;101123.22;;;18.94
49785;BMP280;35679;38.732;-121.358;2022-11-02T06:12:35;101137.41;;;18.95
49785;BMP280;35679;38.732;-121.358;2022-11-02T06:15:25;101139.28;;;18.94
49785;BMP280;35679;38.732;-121.358;2022-11-02T06:18:14;101146.47;;;18.94
49785;BMP280;35679;38.732;-121.358;2022-11-02T06:21:04;101139.47;;;18.93
49785;BMP280;35679;38.732;-121.358;2022-11-02T06:23:54;101136.19;;;18.91
49785;BMP280;35679;38.732;-121.358;2022-11-02T06:26:43;101139.91;;;18.90
49785;BMP280;35679;38.732;-121.358;2022-11-02T06:29:34;101155.13;;;18.89
49785;BMP280;35679;38.732;-121.358;2022-11-02T06:32:24;101151.41;;;18.90
49785;BMP280;35679;38.732;-121.358;2022-11-02T06:35:13;101164.19;;;18.88
49785;BMP280;35679;38.732;-121.358;2022-11-02T06:38:03;101153.69;;;18.87
49785;BMP280;35679;38.732;-121.358;2022-11-02T06:41:00;101156.56;;;18.85
49785;BMP280;35679;38.732;-121.358;2022-11-02T06:43:52;101145.69;;;18.87
49785;BMP280;35679;38.732;-121.358;2022-11-02T06:46:41;101144.03;;;18.86
49785;BMP280;35679;38.732;-121.358;2022-11-02T06:49:31;101144.44;;;18.83
49785;BMP280;35679;38.732;-121.358;2022-11-02T06:52:20;101148.16;;;18.82
49785;BMP280;35679;38.732;-121.358;2022-11-02T06:55:11;101149.78;;;18.83
49785;BMP280;35679;38.732;-121.358;2022-11-02T06:58:01;101150.84;;;18.82
49785;BMP280;35679;38.732;-121.358;2022-11-02T07:00:56;101147.31;;;18.81
49785;BMP280;35679;38.732;-121.358;2022-11-02T07:03:46;101157.44;;;18.79
49785;BMP280;35679;38.732;-121.358;2022-11-02T07:06:36;101152.06;;;18.79
49785;BMP280;35679;38.732;-121.358;2022-11-02T07:09:25;101161.13;;;18.78
49785;BMP280;35679;38.732;-121.358;2022-11-02T07:12:15;101156.81;;;18.77
49785;BMP280;35679;38.732;-121.358;2022-11-02T07:15:09;101161.34;;;18.77
49785;BMP280;35679;38.732;-121.358;2022-11-02T07:17:59;101160.94;;;18.73
49785;BMP280;35679;38.732;-121.358;2022-11-02T07:20:49;101169.53;;;18.75
49785;BMP280;35679;38.732;-121.358;2022-11-02T07:23:38;101171.63;;;18.73
49785;BMP280;35679;38.732;-121.358;2022-11-02T07:26:27;101173.66;;;18.71
49785;BMP280;35679;38.732;-121.358;2022-11-02T07:29:18;101181.47;;;18.73
49785;BMP280;35679;38.732;-121.358;2022-11-02T07:32:07;101179.84;;;18.72
49785;BMP280;35679;38.732;-121.358;2022-11-02T07:34:57;101176.78;;;18.68
49785;BMP280;35679;38.732;-121.358;2022-11-02T07:37:56;101174.09;;;18.68
49785;BMP280;35679;38.732;-121.358;2022-11-02T07:40:48;101176.56;;;18.70
49785;BMP280;35679;38.732;-121.358;2022-11-02T07:43:40;101179.44;;;18.68
49785;BMP280;35679;38.732;-121.358;2022-11-02T07:46:49;101187.88;;;18.65
49785;BMP280;35679;38.732;-121.358;2022-11-02T07:49:40;101189.09;;;18.63
49785;BMP280;35679;38.732;-121.358;2022-11-02T07:52:30;101190.97;;;18.62
49785;BMP280;35679;38.732;-121.358;2022-11-02T07:55:29;101191.78;;;18.63
49785;BMP280;35679;38.732;-121.358;2022-11-02T07:58:18;101193.22;;;18.59
49785;BMP280;35679;38.732;-121.358;2022-11-02T08:01:08;101194.66;;;18.61
49785;BMP280;35679;38.732;-121.358;2022-11-02T08:03:57;101197.75;;;18.58
49785;BMP280;35679;38.732;-121.358;2022-11-02T08:06:47;101196.09;;;18.57
49785;BMP280;35679;38.732;-121.358;2022-11-02T08:09:36;101196.09;;;18.57
49785;BMP280;35679;38.732;-121.358;2022-11-02T08:12:27;101201.66;;;18.56
49785;BMP280;35679;38.732;-121.358;2022-11-02T08:15:16;101192.81;;;18.55
49785;BMP280;35679;38.732;-121.358;2022-11-02T08:18:14;101190.97;;;18.56
49785;BMP280;35679;38.732;-121.358;2022-11-02T08:21:04;101201.84;;;18.54
49785;BMP280;35679;38.732;-121.358;2022-11-02T08:23:54;101202.69;;;18.55
49785;BMP280;35679;38.732;-121.358;2022-11-02T08:26:45;101207.19;;;18.54
49785;BMP280;35679;38.732;-121.358;2022-11-02T08:29:40;101215.44;;;18.53
49785;BMP280;35679;38.732;-121.358;2022-11-02T08:32:30;101207.63;;;18.51
49785;BMP280;35679;38.732;-121.358;2022-11-02T08:35:19;101207.00;;;18.49
49785;BMP280;35679;38.732;-121.358;2022-11-02T08:38:10;101216.06;;;18.48
49785;BMP280;35679;38.732;-121.358;2022-11-02T08:40:59;101211.53;;;18.49
49785;BMP280;35679;38.732;-121.358;2022-11-02T08:43:49;101209.47;;;18.51
49785;BMP280;35679;38.732;-121.358;2022-11-02T08:46:38;101217.28;;;18.52
49785;BMP280;35679;38.732;-121.358;2022-11-02T08:49:28;101222.44;;;18.47
49785;BMP280;35679;38.732;-121.358;2022-11-02T08:52:18;101223.44;;;18.46
49785;BMP280;35679;38.732;-121.358;2022-11-02T08:55:08;101231.47;;;18.46
49785;BMP280;35679;38.732;-121.358;2022-11-02T08:57:58;101228.78;;;18.46
49785;BMP280;35679;38.732;-121.358;2022-11-02T09:00:52;101230.84;;;18.44
49785;BMP280;35679;38.732;-121.358;2022-11-02T09:03:41;101241.53;;;18.44
49785;BMP280;35679;38.732;-121.358;2022-11-02T09:06:31;101239.69;;;18.45
49785;BMP280;35679;38.732;-121.358;2022-11-02T09:09:20;101245.44;;;18.42
49785;BMP280;35679;38.732;-121.358;2022-11-02T09:12:10;101242.53;;;18.43
49785;BMP280;35679;38.732;-121.358;2022-11-02T09:15:00;101240.94;;;18.42
49785;BMP280;35679;38.732;-121.358;2022-11-02T09:17:49;101245.63;;;18.41
49785;BMP280;35679;38.732;-121.358;2022-11-02T09:20:39;101254.69;;;18.40
49785;BMP280;35679;38.732;-121.358;2022-11-02T09:23:30;101252.44;;;18.37
49785;BMP280;35679;38.732;-121.358;2022-11-02T09:26:20;101260.03;;;18.40
49785;BMP280;35679;38.732;-121.358;2022-11-02T09:29:09;101258.38;;;18.39
49785;BMP280;35679;38.732;-121.358;2022-11-02T09:31:59;101265.78;;;18.37
49785;BMP280;35679;38.732;-121.358;2022-11-02T09:34:48;101267.22;;;18.39
49785;BMP280;35679;38.732;-121.358;2022-11-02T09:37:38;101262.47;;;18.35
49785;BMP280;35679;38.732;-121.358;2022-11-02T09:40:52;101278.50;;;18.35
49785;BMP280;35679;38.732;-121.358;2022-11-02T09:46:57;101280.75;;;18.31
49785;BMP280;35679;38.732;-121.358;2022-11-02T09:50:15;101291.28;;;18.33
49785;BMP280;35679;38.732;-121.358;2022-11-02T09:53:08;101291.44;;;18.31
49785;BMP280;35679;38.732;-121.358;2022-11-02T09:55:59;101293.94;;;18.33
49785;BMP280;35679;38.732;-121.358;2022-11-02T09:59:00;101285.28;;;18.31
49785;BMP280;35679;38.732;-121.358;2022-11-02T10:01:58;101298.66;;;18.31
49785;BMP280;35679;38.732;-121.358;2022-11-02T10:11:43;101299.06;;;18.28
49785;BMP280;35679;38.732;-121.358;2022-11-02T10:14:36;101303.56;;;18.27
49785;BMP280;35679;38.732;-121.358;2022-11-02T10:17:29;101306.03;;;18.29
49785;BMP280;35679;38.732;-121.358;2022-11-02T10:20:26;101306.47;;;18.26
49785;BMP280;35679;38.732;-121.358;2022-11-02T10:23:44;101304.00;;;18.24
49785;BMP280;35679;38.732;-121.358;2022-11-02T10:26:36;101299.66;;;18.23
49785;BMP280;35679;38.732;-121.358;2022-11-02T10:32:52;101308.50;;;18.24
49785;BMP280;35679;38.732;-121.358;2022-11-02T10:39:05;101313.84;;;18.24
49785;BMP280;35679;38.732;-121.358;2022-11-02T10:48:53;101309.13;;;18.19
49785;BMP280;35679;38.732;-121.358;2022-11-02T10:51:44;101314.25;;;18.21
49785;BMP280;35679;38.732;-121.358;2022-11-02T10:54:34;101307.25;;;18.20
49785;BMP280;35679;38.732;-121.358;2022-11-02T10:57:25;101306.44;;;18.19
49785;BMP280;35679;38.732;-121.358;2022-11-02T11:00:25;101310.16;;;18.18
49785;BMP280;35679;38.732;-121.358;2022-11-02T11:03:16;101308.66;;;18.16
49785;BMP280;35679;38.732;-121.358;2022-11-02T11:06:10;101306.59;;;18.18
49785;BMP280;35679;38.732;-121.358;2022-11-02T11:09:22;101318.97;;;18.19
49785;BMP280;35679;38.732;-121.358;2022-11-02T11:12:20;101318.34;;;18.17
49785;BMP280;35679;38.732;-121.358;2022-11-02T11:15:24;101322.81;;;18.16
49785;BMP280;35679;38.732;-121.358;2022-11-02T11:18:36;101321.00;;;18.17
49785;BMP280;35679;38.732;-121.358;2022-11-02T11:21:47;101330.84;;;18.16
49785;BMP280;35679;38.732;-121.358;2022-11-02T11:24:39;101315.22;;;18.13
49785;BMP280;35679;38.732;-121.358;2022-11-02T11:27:29;101317.47;;;18.10
49785;BMP280;35679;38.732;-121.358;2022-11-02T11:30:29;101326.72;;;18.14
49785;BMP280;35679;38.732;-121.358;2022-11-02T11:33:54;101325.91;;;18.13
49785;BMP280;35679;38.732;-121.358;2022-11-02T11:36:45;101328.38;;;18.15
49785;BMP280;35679;38.732;-121.358;2022-11-02T11:39:35;101327.34;;;18.09
49785;BMP280;35679;38.732;-121.358;2022-11-02T11:42:30;101344.19;;;18.10
49785;BMP280;35679;38.732;-121.358;2022-11-02T11:45:25;101345.84;;;18.11
49785;BMP280;35679;38.732;-121.358;2022-11-02T11:54:21;101347.06;;;18.08
49785;BMP280;35679;38.732;-121.358;2022-11-02T11:57:32;101349.94;;;18.07
49785;BMP280;35679;38.732;-121.358;2022-11-02T12:00:27;101357.75;;;18.08
49785;BMP280;35679;38.732;-121.358;2022-11-02T12:03:17;101353.22;;;18.09
49785;BMP280;35679;38.732;-121.358;2022-11-02T12:27:43;101369.84;;;18.04
49785;BMP280;35679;38.732;-121.358;2022-11-02T12:31:26;101373.75;;;18.02
49785;BMP280;35679;38.732;-121.358;2022-11-02T12:34:45;101383.59;;;18.01
49785;BMP280;35679;38.732;-121.358;2022-11-02T12:44:04;101381.13;;;18.00
49785;BMP280;35679;38.732;-121.358;2022-11-02T12:56:33;101401.47;;;18.01
49785;BMP280;35679;38.732;-121.358;2022-11-02T12:59:33;101400.03;;;17.98
49785;BMP280;35679;38.732;-121.358;2022-11-02T13:02:30;101401.03;;;17.97
49785;BMP280;35679;38.732;-121.358;2022-11-02T13:05:26;101408.19;;;17.97
49785;BMP280;35679;38.732;-121.358;2022-11-02T13:08:40;101401.84;;;17.98
49785;BMP280;35679;38.732;-121.358;2022-11-02T13:11:32;101404.28;;;17.93
49785;BMP280;35679;38.732;-121.358;2022-11-02T13:14:26;101408.63;;;17.94
49785;BMP280;35679;38.732;-121.358;2022-11-02T13:17:19;101416.22;;;17.97
49785;BMP280;35679;38.732;-121.358;2022-11-02T13:20:29;101410.28;;;17.95
49785;BMP280;35679;38.732;-121.358;2022-11-02T13:23:37;101418.47;;;17.93
49785;BMP280;35679;38.732;-121.358;2022-11-02T13:26:35;101412.50;;;17.91
49785;BMP280;35679;38.732;-121.358;2022-11-02T13:29:47;101414.97;;;17.93
49785;BMP280;35679;38.732;-121.358;2022-11-02T13:33:01;101418.03;;;17.90
49785;BMP280;35679;38.732;-121.358;2022-11-02T13:35:49;101420.06;;;17.88
49785;BMP280;35679;38.732;-121.358;2022-11-02T13:39:13;101412.72;;;17.90
49785;BMP280;35679;38.732;-121.358;2022-11-02T13:42:21;101410.25;;;17.88
49785;BMP280;35679;38.732;-121.358;2022-11-02T13:51:35;101416.59;;;17.87
49785;BMP280;35679;38.732;-121.358;2022-11-02T13:54:32;101414.13;;;17.86
49785;BMP280;35679;38.732;-121.358;2022-11-02T13:57:40;101422.13;;;17.86
49785;BMP280;35679;38.732;-121.358;2022-11-02T14:00:39;101420.06;;;17.88
49785;BMP280;35679;38.732;-121.358;2022-11-02T14:07:00;101422.31;;;17.84
49785;BMP280;35679;38.732;-121.358;2022-11-02T14:09:56;101425.81;;;17.85
49785;BMP280;35679;38.732;-121.358;2022-11-02T14:12:49;101427.03;;;17.82
49785;BMP280;35679;38.732;-121.358;2022-11-02T14:15:41;101431.53;;;17.82
49785;BMP280;35679;38.732;-121.358;2022-11-02T14:18:30;101429.91;;;17.81
49785;BMP280;35679;38.732;-121.358;2022-11-02T14:21:41;101434.22;;;17.82
49785;BMP280;35679;38.732;-121.358;2022-11-02T14:27:28;101443.44;;;17.79
49785;BMP280;35679;38.732;-121.358;2022-11-02T14:30:40;101445.94;;;17.81
49785;BMP280;35679;38.732;-121.358;2022-11-02T14:33:49;101442.41;;;17.80
49785;BMP280;35679;38.732;-121.358;2022-11-02T14:40:53;101443.25;;;17.81
49785;BMP280;35679;38.732;-121.358;2022-11-02T14:49:33;101452.50;;;17.78
49785;BMP280;35679;38.732;-121.358;2022-11-02T14:52:29;101453.66;;;17.76
49785;BMP280;35679;38.732;-121.358;2022-11-02T14:55:31;101460.06;;;17.75
49785;BMP280;35679;38.732;-121.358;2022-11-02T14:58:28;101448.53;;;17.74
49785;BMP280;35679;38.732;-121.358;2022-11-02T15:01:18;101459.00;;;17.76
49785;BMP280;35679;38.732;-121.358;2022-11-02T15:04:08;101452.66;;;17.77
49785;BMP280;35679;38.732;-121.358;2022-11-02T15:07:00;101463.53;;;17.75
49785;BMP280;35679;38.732;-121.358;2022-11-02T15:09:57;101465.56;;;17.73
49785;BMP280;35679;38.732;-121.358;2022-11-02T15:12:48;101471.53;;;17.75
49785;BMP280;35679;38.732;-121.358;2022-11-02T15:15:38;101475.03;;;17.76
49785;BMP280;35679;38.732;-121.358;2022-11-02T15:18:33;101469.69;;;17.76
49785;BMP280;35679;38.732;-121.358;2022-11-02T15:21:23;101477.09;;;17.74
49785;BMP280;35679;38.732;-121.358;2022-11-02T15:24:17;101479.13;;;17.72
49785;BMP280;35679;38.732;-121.358;2022-11-02T15:27:11;101492.09;;;17.75
49785;BMP280;35679;38.732;-121.358;2022-11-02T15:30:00;101496.38;;;17.76
49785;BMP280;35679;38.732;-121.358;2022-11-02T15:32:53;101498.44;;;17.74
49785;BMP280;35679;38.732;-121.358;2022-11-02T15:35:51;101500.09;;;17.75
49785;BMP280;35679;38.732;-121.358;2022-11-02T15:38:46;101503.56;;;17.75
49785;BMP280;35679;38.732;-121.358;2022-11-02T15:41:42;101507.91;;;17.76
49785;BMP280;35679;38.732;-121.358;2022-11-02T15:47:58;101517.94;;;17.74
49785;BMP280;35679;38.732;-121.358;2022-11-02T15:51:20;101521.44;;;17.75
49785;BMP280;35679;38.732;-121.358;2022-11-02T16:00:28;101535.63;;;17.75
49785;BMP280;35679;38.732;-121.358;2022-11-02T16:03:20;101538.28;;;17.75
49785;BMP280;35679;38.732;-121.358;2022-11-02T16:06:10;101540.75;;;17.77
49785;BMP280;35679;38.732;-121.358;2022-11-02T16:09:01;101540.94;;;17.75
49785;BMP280;35679;38.732;-121.358;2022-11-02T16:12:21;101550.63;;;17.76
49785;BMP280;35679;38.732;-121.358;2022-11-02T16:15:16;101544.25;;;17.77
49785;BMP280;35679;38.732;-121.358;2022-11-02T16:18:21;101550.63;;;17.76
49785;BMP280;35679;38.732;-121.358;2022-11-02T16:21:15;101543.41;;;17.77
49785;BMP280;35679;38.732;-121.358;2022-11-02T16:24:05;101544.88;;;17.79
49785;BMP280;35679;38.732;-121.358;2022-11-02T16:26:59;101549.41;;;17.79
49785;BMP280;35679;38.732;-121.358;2022-11-02T16:29:49;101547.38;;;17.81
49785;BMP280;35679;38.732;-121.358;2022-11-02T16:32:39;101553.94;;;17.78
49785;BMP280;35679;38.732;-121.358;2022-11-02T16:35:28;101560.91;;;17.79
49785;BMP280;35679;38.732;-121.358;2022-11-02T16:38:19;101565.41;;;17.79
49785;BMP280;35679;38.732;-121.358;2022-11-02T16:41:09;101567.09;;;17.80
49785;BMP280;35679;38.732;-121.358;2022-11-02T16:44:02;101565.22;;;17.80
49785;BMP280;35679;38.732;-121.358;2022-11-02T16:52:38;101572.03;;;17.83
49785;BMP280;35679;38.732;-121.358;2022-11-02T16:55:42;101572.03;;;17.83
49785;BMP280;35679;38.732;-121.358;2022-11-02T16:58:32;101567.53;;;17.83
49785;BMP280;35679;38.732;-121.358;2022-11-02T17:01:22;101572.03;;;17.83
49785;BMP280;35679;38.732;-121.358;2022-11-02T17:04:27;101566.31;;;17.86
49785;BMP280;35679;38.732;-121.358;2022-11-02T17:07:29;101569.78;;;17.86
49785;BMP280;35679;38.732;-121.358;2022-11-02T17:10:25;101570.00;;;17.85
49785;BMP280;35679;38.732;-121.358;2022-11-02T17:13:15;101560.56;;;17.89
49785;BMP280;35679;38.732;-121.358;2022-11-02T17:16:10;101564.06;;;17.89
49785;BMP280;35679;38.732;-121.358;2022-11-02T17:19:02;101562.22;;;17.90
49785;BMP280;35679;38.732;-121.358;2022-11-02T17:22:15;101562.22;;;17.90
49785;BMP280;35679;38.732;-121.358;2022-11-02T17:25:12;101564.50;;;17.93
49785;BMP280;35679;38.732;-121.358;2022-11-02T17:31:29;101563.47;;;17.94
49785;BMP280;35679;38.732;-121.358;2022-11-02T17:34:19;101554.06;;;17.98
49785;BMP280;35679;38.732;-121.358;2022-11-02T17:37:21;101554.91;;;17.98
49785;BMP280;35679;38.732;-121.358;2022-11-02T17:40:12;101561.88;;;17.99
49785;BMP280;35679;38.732;-121.358;2022-11-02T17:43:01;101556.53;;;17.99
49785;BMP280;35679;38.732;-121.358;2022-11-02T17:45:58;101559.03;;;18.01
49785;BMP280;35679;38.732;-121.358;2022-11-02T17:48:47;101557.16;;;18.01
49785;BMP280;35679;38.732;-121.358;2022-11-02T17:51:38;101559.06;;;18.07
49785;BMP280;35679;38.732;-121.358;2022-11-02T17:54:28;101564.84;;;18.11
49785;BMP280;35679;38.732;-121.358;2022-11-02T17:57:17;101561.34;;;18.10